Terminal Aerodrome Forecast
Issued by NWS Sterling, VA

Current Version | Previous Version | Graphics & Text | Print | Product List | Glossary On
Versions: 1 2 3 4 5 6 7 8 9 10 11 12 13 14 15 16 17 18 19 20 21 22 23 24 25 26
000
FTUS41 KLWX 280900 AAA
TAFIAD
TAF AMD
KIAD 280907Z 2809/2912 00000KT 5SM MIFG FEW250
     FM281200 22005KT P6SM FEW250
     FM290000 18003KT P6SM BKN200
     FM291000 VRB03KT P6SM OVC120=

USA.gov is the U.S. government's official web portal to all federal, state and local government web resources and services.